Time;durP1;ratioP1;P1;durP2;ratioP2;P2;SDS_P1;SDS_P2;PMS_P1;PMS_P2;Temp;Humidity;BMP_temperature;BMP_pressure;BME280_temperature;BME280_humidity;BME280_pressure;Samples;Min_cycle;Max_cycle;Signal;HPM_P1;HPM_P2
2022/05/19 00:01:04;;;;;;;11.40;4.93;;;22.80;26.10;;;;;;4972237;28;20965;-71
2022/05/19 00:03:32;;;;;;;8.57;4.90;;;22.70;27.00;;;;;;4974017;28;20407;-72
2022/05/19 00:06:01;;;;;;;7.80;4.67;;;22.70;26.10;;;;;;4973689;28;20475;-71
2022/05/19 00:08:27;;;;;;;10.90;5.23;;;22.70;26.20;;;;;;4974180;28;20934;-71
2022/05/19 00:10:57;;;;;;;9.80;5.50;;;22.50;27.00;;;;;;4973780;28;21000;-70
2022/05/19 00:13:24;;;;;;;6.03;4.53;;;22.50;26.50;;;;;;4973907;28;20491;-72
2022/05/19 00:15:50;;;;;;;7.80;4.90;;;22.80;25.40;;;;;;4973694;28;20409;-71
2022/05/19 00:18:16;;;;;;;12.23;5.37;;;22.70;26.30;;;;;;4973890;28;20432;-71
2022/05/19 00:20:42;;;;;;;10.87;5.53;;;22.90;26.00;;;;;;4974007;28;20459;-71
2022/05/19 00:23:08;;;;;;;8.53;4.57;;;23.10;26.60;;;;;;4973039;28;20834;-71
2022/05/19 00:25:33;;;;;;;8.50;4.53;;;23.00;26.50;;;;;;4973110;28;20272;-71
2022/05/19 00:27:59;;;;;;;15.83;5.13;;;23.10;26.20;;;;;;4972233;28;20744;-71
2022/05/19 00:30:25;;;;;;;9.67;4.97;;;22.90;26.00;;;;;;4972036;28;20273;-71
2022/05/19 00:32:51;;;;;;;7.50;4.60;;;22.90;26.60;;;;;;4971835;28;20177;-71
2022/05/19 00:35:16;;;;;;;6.40;4.87;;;23.10;26.30;;;;;;4972437;28;20434;-71
2022/05/19 00:37:42;;;;;;;11.70;4.97;;;22.90;25.50;;;;;;4972654;28;20211;-71
2022/05/19 00:40:10;;;;;;;9.10;5.30;;;23.10;26.40;;;;;;4972325;28;20217;-71
2022/05/19 00:42:45;;;;;;;6.37;4.90;;;23.20;26.20;;;;;;4971742;28;20189;-70
2022/05/19 00:45:16;;;;;;;11.00;5.20;;;23.30;26.70;;;;;;4971080;28;20441;-70
2022/05/19 00:47:56;;;;;;;11.37;4.70;;;23.20;26.10;;;;;;4971919;28;20431;-71
2022/05/19 00:50:28;;;;;;;10.37;5.30;;;23.10;25.40;;;;;;4968280;28;20474;-69
2022/05/19 00:52:59;;;;;;;9.83;5.30;;;22.90;28.00;;;;;;4971763;28;20488;-71
2022/05/19 00:55:33;;;;;;;8.97;4.90;;;22.90;26.30;;;;;;4968201;28;20434;-70
2022/05/19 00:58:05;;;;;;;13.87;5.00;;;23.00;27.00;;;;;;4971608;28;20462;-71
2022/05/19 01:00:32;;;;;;;7.13;5.13;;;22.80;27.20;;;;;;4971499;28;20445;-71
2022/05/19 01:03:00;;;;;;;10.13;4.93;;;22.40;29.10;;;;;;4972133;28;20437;-71
2022/05/19 01:05:36;;;;;;;8.30;4.70;;;22.60;26.90;;;;;;4971343;28;20468;-71
2022/05/19 01:08:12;;;;;;;9.00;5.30;;;22.50;29.00;;;;;;4971408;28;20440;-71
2022/05/19 01:10:39;;;;;;;9.33;5.00;;;22.50;26.80;;;;;;4971296;28;20516;-71
2022/05/19 01:13:05;;;;;;;7.90;4.67;;;22.50;26.90;;;;;;4971391;28;20475;-71
2022/05/19 01:15:34;;;;;;;11.03;4.73;;;22.70;25.70;;;;;;4971706;28;20859;-71
2022/05/19 01:18:02;;;;;;;10.23;5.10;;;22.70;25.20;;;;;;4971053;28;20196;-71
2022/05/19 01:20:28;;;;;;;7.10;5.13;;;22.70;25.10;;;;;;4968177;28;20456;-71
2022/05/19 01:23:18;;;;;;;9.77;5.27;;;22.80;25.30;;;;;;4971238;28;20905;-71
2022/05/19 01:25:44;;;;;;;9.70;5.20;;;22.60;27.90;;;;;;4970709;28;20273;-71
2022/05/19 01:28:10;;;;;;;7.13;4.87;;;22.60;25.70;;;;;;4970662;28;20430;-71
2022/05/19 01:30:36;;;;;;;9.70;5.40;;;22.80;26.00;;;;;;4971065;28;20357;-71
2022/05/19 01:33:02;;;;;;;7.73;5.10;;;22.80;25.60;;;;;;4971533;28;20429;-70
2022/05/19 01:35:33;;;;;;;7.20;4.60;;;22.40;28.70;;;;;;4970811;28;20432;-71
2022/05/19 01:37:59;;;;;;;6.80;4.90;;;22.50;26.30;;;;;;4971130;28;20867;-71
2022/05/19 01:40:39;;;;;;;12.10;5.17;;;22.50;27.30;;;;;;4970470;28;20443;-70
2022/05/19 01:43:37;;;;;;;10.30;5.20;;;22.40;26.90;;;;;;4970531;28;20475;-72
2022/05/19 01:46:12;;;;;;;7.33;4.90;;;22.20;27.50;;;;;;4970870;28;20429;-71
2022/05/19 01:48:48;;;;;;;8.80;4.63;;;22.10;27.90;;;;;;4970906;28;20997;-71
2022/05/19 01:51:21;;;;;;;10.17;5.40;;;22.10;27.50;;;;;;4971304;28;20476;-70
2022/05/19 01:54:33;;;;;;;9.20;4.63;;;22.00;28.30;;;;;;4952568;28;20464;-71
2022/05/19 01:57:12;;;;;;;7.50;4.80;;;22.30;26.60;;;;;;4965031;28;20779;-72
2022/05/19 01:59:52;;;;;;;6.00;4.57;;;22.10;27.60;;;;;;4970772;28;20455;-71
2022/05/19 02:02:55;;;;;;;10.67;5.10;;;22.10;28.50;;;;;;4970554;28;20532;-70
2022/05/19 02:05:39;;;;;;;6.90;4.70;;;22.20;26.50;;;;;;4971274;28;20527;-71
2022/05/19 02:08:11;;;;;;;9.63;5.53;;;22.10;27.50;;;;;;4971650;28;20527;-71
2022/05/19 02:10:42;;;;;;;10.20;5.30;;;21.80;26.90;;;;;;4970075;28;20992;-71
2022/05/19 02:13:08;;;;;;;7.33;4.83;;;21.70;29.00;;;;;;4971390;28;20444;-71
2022/05/19 02:15:39;;;;;;;8.57;5.10;;;22.00;26.00;;;;;;4970676;28;20561;-71
2022/05/19 02:18:05;;;;;;;10.00;5.33;;;22.00;25.60;;;;;;4971162;28;20517;-70
2022/05/19 02:20:33;;;;;;;11.50;5.20;;;22.30;25.20;;;;;;4970918;28;20828;-71
2022/05/19 02:23:00;;;;;;;10.73;4.77;;;22.30;26.70;;;;;;4972966;28;20475;-71
2022/05/19 02:25:31;;;;;;;6.57;4.50;;;22.30;25.60;;;;;;4974895;28;20447;-71
2022/05/19 02:27:59;;;;;;;10.30;4.80;;;22.40;25.00;;;;;;4971011;28;20521;-71
2022/05/19 02:30:28;;;;;;;8.70;4.70;;;22.50;24.70;;;;;;4972506;28;20893;-71
2022/05/19 02:32:53;;;;;;;10.70;5.40;;;22.40;24.80;;;;;;4974142;28;20842;-71
2022/05/19 02:35:20;;;;;;;11.83;4.97;;;22.40;25.30;;;;;;4975078;28;20492;-71
2022/05/19 02:37:45;;;;;;;7.80;4.80;;;22.50;25.10;;;;;;4975014;28;20556;-71
2022/05/19 02:40:14;;;;;;;7.63;4.60;;;22.60;25.90;;;;;;4971398;28;20472;-71
2022/05/19 02:42:40;;;;;;;10.33;5.10;;;22.60;25.50;;;;;;4974069;28;20271;-71
2022/05/19 02:45:07;;;;;;;7.70;4.83;;;22.40;27.30;;;;;;4974428;28;20440;-71
2022/05/19 02:47:33;;;;;;;7.80;4.60;;;22.10;26.00;;;;;;4974666;28;20528;-72
2022/05/19 02:49:58;;;;;;;8.77;6.00;;;22.20;27.50;;;;;;4974110;28;20550;-71
2022/05/19 02:52:24;;;;;;;9.73;6.63;;;21.70;27.20;;;;;;4974288;28;20438;-71
2022/05/19 02:54:49;;;;;;;10.80;7.30;;;21.20;30.00;;;;;;4974049;28;20178;-71
2022/05/19 02:57:15;;;;;;;15.83;8.27;;;20.10;32.50;;;;;;4974527;28;20662;-71
2022/05/19 02:59:42;;;;;;;11.47;7.20;;;19.80;34.10;;;;;;4974171;28;20204;-70
2022/05/19 03:02:08;;;;;;;14.70;6.53;;;19.90;33.20;;;;;;4970769;28;20520;-71
2022/05/19 03:04:34;;;;;;;11.67;7.00;;;19.20;35.60;;;;;;4972973;28;20427;-71
2022/05/19 03:07:00;;;;;;;14.50;6.80;;;18.70;36.70;;;;;;4957546;28;20436;-71
2022/05/19 03:09:26;;;;;;;12.23;7.37;;;18.60;37.30;;;;;;4973498;28;20826;-69
2022/05/19 03:11:51;;;;;;;11.70;6.23;;;19.40;37.00;;;;;;4974047;28;20179;-71
2022/05/19 03:14:17;;;;;;;8.83;6.10;;;19.70;33.70;;;;;;4973720;28;20199;-71
2022/05/19 03:16:42;;;;;;;10.70;6.70;;;19.80;34.40;;;;;;4974696;28;20179;-71
2022/05/19 03:19:09;;;;;;;14.27;6.30;;;19.80;34.20;;;;;;4974062;28;20187;-70
2022/05/19 03:21:36;;;;;;;12.33;6.23;;;20.00;33.60;;;;;;4955723;28;20276;-71
2022/05/19 03:24:02;;;;;;;13.53;6.73;;;20.20;33.20;;;;;;4974158;28;20430;-71
2022/05/19 03:26:28;;;;;;;17.77;6.87;;;20.20;34.10;;;;;;4973851;28;20432;-71
2022/05/19 03:28:54;;;;;;;15.13;6.87;;;20.50;33.20;;;;;;4974102;28;20433;-71
2022/05/19 03:31:20;;;;;;;8.57;6.20;;;20.10;33.50;;;;;;4973777;28;20203;-71
2022/05/19 03:33:45;;;;;;;10.63;6.80;;;20.10;34.40;;;;;;4971202;28;21069;-71
2022/05/19 03:36:11;;;;;;;9.23;6.90;;;20.10;35.20;;;;;;4973530;28;20180;-71
2022/05/19 03:38:37;;;;;;;9.97;6.73;;;20.10;34.40;;;;;;4956206;28;20188;-71
2022/05/19 03:41:03;;;;;;;15.43;6.57;;;20.10;34.80;;;;;;4973785;28;20461;-71
2022/05/19 03:43:29;;;;;;;9.00;6.20;;;19.90;34.70;;;;;;4964789;28;20184;-71
2022/05/19 03:45:55;;;;;;;8.73;6.50;;;19.80;36.20;;;;;;4972518;28;20505;-71
2022/05/19 03:48:21;;;;;;;7.87;6.20;;;19.80;35.60;;;;;;4973570;28;20240;-71
2022/05/19 03:50:47;;;;;;;9.43;6.30;;;19.90;35.40;;;;;;4973432;28;20484;-70
2022/05/19 03:53:13;;;;;;;9.97;6.10;;;19.90;35.40;;;;;;4972758;28;20182;-71
2022/05/19 03:55:39;;;;;;;13.50;7.20;;;19.80;35.30;;;;;;4973933;28;20439;-70
2022/05/19 03:58:05;;;;;;;9.43;6.03;;;19.90;35.10;;;;;;4973147;28;20649;-73
2022/05/19 04:00:32;;;;;;;9.83;6.00;;;20.00;34.20;;;;;;4955484;28;20205;-71
2022/05/19 04:02:59;;;;;;;9.50;5.73;;;20.10;30.40;;;;;;4972964;28;20960;-71
2022/05/19 04:05:25;;;;;;;14.00;7.03;;;20.20;30.20;;;;;;4969814;28;20524;-71
2022/05/19 04:07:52;;;;;;;9.57;6.00;;;20.00;29.70;;;;;;4955541;28;20995;-70
2022/05/19 04:10:18;;;;;;;12.73;5.93;;;20.40;29.50;;;;;;4972839;28;21022;-71
2022/05/19 04:12:43;;;;;;;10.30;6.13;;;20.30;30.10;;;;;;4972484;28;20433;-71
2022/05/19 04:15:10;;;;;;;9.47;6.57;;;20.30;32.90;;;;;;4973286;28;20281;-72
2022/05/19 04:17:36;;;;;;;14.87;7.57;;;20.60;33.80;;;;;;4954615;28;20190;-71
2022/05/19 04:20:05;;;;;;;11.83;6.80;;;19.80;34.70;;;;;;4973345;28;20457;-69
2022/05/19 04:22:31;;;;;;;10.57;6.40;;;19.10;38.40;;;;;;4954885;28;20246;-70
2022/05/19 04:25:00;;;;;;;13.80;7.17;;;19.20;37.20;;;;;;4972812;28;20438;-70
2022/05/19 04:27:27;;;;;;;12.27;6.60;;;19.40;37.20;;;;;;4952550;28;20454;-71
2022/05/19 04:29:54;;;;;;;10.50;5.63;;;18.70;38.40;;;;;;4973180;28;20481;-71
2022/05/19 04:32:19;;;;;;;10.17;5.80;;;18.50;36.30;;;;;;4972130;28;20441;-71
2022/05/19 04:34:45;;;;;;;11.03;5.77;;;18.80;36.40;;;;;;4972365;28;20850;-71
2022/05/19 04:37:11;;;;;;;10.83;7.20;;;19.70;36.00;;;;;;4972683;28;20183;-71
2022/05/19 04:39:36;;;;;;;17.93;6.90;;;20.00;36.90;;;;;;4971967;28;20186;-70
2022/05/19 04:42:06;;;;;;;17.50;7.13;;;20.00;35.60;;;;;;4972381;28;20172;-71
2022/05/19 04:44:32;;;;;;;17.27;6.03;;;20.00;35.50;;;;;;4971022;28;20229;-70
2022/05/19 04:46:58;;;;;;;20.10;7.00;;;19.20;36.20;;;;;;4972188;28;20446;-71
2022/05/19 04:49:23;;;;;;;18.90;7.00;;;18.70;39.10;;;;;;4971934;28;20203;-71
2022/05/19 04:51:49;;;;;;;13.40;6.07;;;19.10;38.20;;;;;;4971750;28;20272;-71
2022/05/19 04:54:15;;;;;;;17.43;6.80;;;18.90;37.00;;;;;;4972446;28;20186;-71
2022/05/19 04:56:41;;;;;;;12.63;7.07;;;18.60;38.60;;;;;;4972807;28;20681;-71
2022/05/19 04:59:13;;;;;;;12.37;7.03;;;18.50;40.20;;;;;;4972176;28;20205;-69
2022/05/19 05:01:40;;;;;;;23.33;7.20;;;18.90;40.60;;;;;;4971787;28;20452;-71
2022/05/19 05:04:06;;;;;;;14.23;6.47;;;18.90;39.10;;;;;;4972225;28;20481;-71
2022/05/19 05:06:32;;;;;;;14.80;6.90;;;19.40;39.40;;;;;;4972211;28;20856;-71
2022/05/19 05:08:58;;;;;;;9.73;6.83;;;20.00;34.50;;;;;;4972101;28;20178;-71
2022/05/19 05:11:24;;;;;;;10.17;6.60;;;20.30;36.40;;;;;;4971591;28;20484;-71
2022/05/19 05:13:49;;;;;;;9.27;6.77;;;20.40;37.00;;;;;;4971037;28;20468;-71
2022/05/19 05:16:15;;;;;;;11.23;6.10;;;20.60;32.50;;;;;;4971163;28;20889;-71
2022/05/19 05:18:41;;;;;;;13.23;6.60;;;20.70;32.70;;;;;;4971031;28;20258;-70
2022/05/19 05:21:07;;;;;;;8.90;6.03;;;21.00;31.10;;;;;;4971215;28;20209;-71
2022/05/19 05:23:33;;;;;;;15.20;6.20;;;21.40;31.20;;;;;;4954516;28;20276;-71
2022/05/19 05:25:59;;;;;;;17.63;6.50;;;21.60;29.40;;;;;;4972046;28;20443;-72
2022/05/19 05:28:24;;;;;;;21.20;7.80;;;21.40;31.50;;;;;;4971287;28;20442;-71
2022/05/19 05:30:51;;;;;;;16.93;9.60;;;20.20;34.30;;;;;;4970444;28;20216;-71
2022/05/19 05:33:17;;;;;;;25.93;9.00;;;19.10;38.60;;;;;;4971691;28;20190;-71
2022/05/19 05:35:43;;;;;;;16.27;8.47;;;19.20;40.90;;;;;;4971453;28;20512;-71
2022/05/19 05:38:09;;;;;;;21.70;8.10;;;19.60;40.00;;;;;;4970722;28;20436;-71
2022/05/19 05:40:35;;;;;;;13.70;7.27;;;20.20;39.70;;;;;;4967612;28;20446;-71
2022/05/19 05:43:09;;;;;;;10.57;6.60;;;20.60;35.40;;;;;;4969570;28;20229;-71
2022/05/19 05:45:35;;;;;;;10.70;6.23;;;20.50;34.90;;;;;;4969664;28;20879;-72
2022/05/19 05:48:01;;;;;;;12.83;7.17;;;21.00;33.40;;;;;;4971064;28;20437;-72
2022/05/19 05:50:27;;;;;;;14.23;6.10;;;21.50;31.40;;;;;;4970773;28;20483;-71
2022/05/19 05:52:52;;;;;;;9.20;5.93;;;21.80;30.70;;;;;;4966980;28;20176;-72
2022/05/19 05:55:18;;;;;;;7.90;5.80;;;22.10;33.80;;;;;;4970947;28;20522;-70
2022/05/19 05:57:44;;;;;;;9.70;5.70;;;22.30;30.50;;;;;;4970024;28;20189;-71
2022/05/19 06:00:11;;;;;;;10.17;5.33;;;22.50;28.40;;;;;;4971623;28;20679;-71
2022/05/19 06:02:37;;;;;;;7.30;5.30;;;22.60;28.60;;;;;;4966685;28;20560;-72
2022/05/19 06:05:03;;;;;;;13.50;6.17;;;22.60;28.10;;;;;;4970973;28;20430;-71
2022/05/19 06:07:29;;;;;;;9.77;6.03;;;22.90;27.60;;;;;;4971046;28;20658;-71
2022/05/19 06:09:56;;;;;;;11.90;5.70;;;23.10;27.60;;;;;;4971467;28;20558;-70
2022/05/19 06:12:22;;;;;;;14.77;5.93;;;23.10;27.60;;;;;;4949487;29;20187;-71
2022/05/19 06:14:48;;;;;;;10.63;5.47;;;23.10;27.70;;;;;;4969206;28;20439;-71
2022/05/19 06:17:14;;;;;;;10.30;5.97;;;23.30;27.10;;;;;;4970984;28;20437;-71
2022/05/19 06:19:40;;;;;;;9.53;5.50;;;23.30;26.50;;;;;;4970862;28;20566;-71
2022/05/19 06:22:06;;;;;;;11.37;5.80;;;23.20;27.60;;;;;;4970213;28;20202;-71
2022/05/19 06:24:34;;;;;;;15.50;6.83;;;22.80;28.70;;;;;;4965687;28;20955;-71
2022/05/19 06:27:00;;;;;;;13.07;8.53;;;22.10;32.00;;;;;;4968197;28;20189;-71
2022/05/19 06:29:26;;;;;;;17.27;8.33;;;21.50;34.40;;;;;;4970560;28;20907;-70
2022/05/19 06:31:52;;;;;;;21.00;9.07;;;21.10;36.00;;;;;;4966772;28;20188;-70
2022/05/19 06:34:17;;;;;;;26.03;8.73;;;21.50;36.20;;;;;;4970675;28;20515;-69
2022/05/19 06:36:43;;;;;;;13.10;8.57;;;21.70;35.10;;;;;;4970968;28;20191;-70
2022/05/19 06:39:09;;;;;;;19.67;9.00;;;22.00;34.00;;;;;;4971165;28;20431;-71
2022/05/19 06:44:19;;;;;;;16.47;8.13;;;21.50;35.60;;;;;;4971206;28;20440;-74
2022/05/19 06:46:46;;;;;;;11.90;7.90;;;21.40;35.70;;;;;;4970673;28;20516;-73
2022/05/19 06:49:12;;;;;;;10.03;6.77;;;21.40;35.60;;;;;;4970551;28;20187;-71
2022/05/19 06:51:39;;;;;;;11.00;7.20;;;21.50;35.70;;;;;;4969640;28;20476;-71
2022/05/19 06:54:05;;;;;;;14.23;7.30;;;21.50;35.80;;;;;;4970969;28;20932;-72
2022/05/19 06:56:30;;;;;;;18.47;7.53;;;21.60;35.70;;;;;;4970604;28;20495;-71
2022/05/19 06:58:56;;;;;;;15.43;6.97;;;21.60;36.40;;;;;;4969839;28;20439;-72
2022/05/19 07:01:22;;;;;;;16.20;7.20;;;21.80;36.30;;;;;;4962585;28;20273;-71
2022/05/19 07:03:48;;;;;;;17.80;7.17;;;22.00;36.20;;;;;;4964632;28;20186;-71
2022/05/19 07:06:13;;;;;;;9.73;5.83;;;22.30;34.90;;;;;;4966939;28;20193;-71
2022/05/19 07:08:40;;;;;;;25.20;7.57;;;22.40;34.70;;;;;;4968746;28;20523;-71
2022/05/19 07:11:06;;;;;;;16.30;7.27;;;22.20;34.20;;;;;;4972800;28;20253;-71
2022/05/19 07:13:31;;;;;;;16.27;6.50;;;22.30;34.70;;;;;;4971544;28;20429;-71
2022/05/19 07:15:59;;;;;;;19.70;7.50;;;22.50;34.60;;;;;;4972678;28;20771;-71
2022/05/19 07:18:25;;;;;;;10.90;6.80;;;22.70;34.00;;;;;;4970057;28;20178;-71
2022/05/19 07:20:52;;;;;;;11.07;6.80;;;22.30;34.80;;;;;;4971023;28;20465;-70
2022/05/19 07:23:21;;;;;;;12.10;7.07;;;22.60;33.70;;;;;;4971064;28;20264;-70
2022/05/19 07:25:47;;;;;;;10.77;6.63;;;22.60;34.40;;;;;;4969861;28;20801;-70
2022/05/19 07:28:14;;;;;;;24.47;7.17;;;22.60;35.20;;;;;;4971415;28;20504;-70
2022/05/19 07:30:43;;;;;;;12.97;6.80;;;22.70;35.70;;;;;;4969894;28;20473;-71
2022/05/19 07:33:10;;;;;;;14.67;7.00;;;22.80;33.90;;;;;;4970695;28;20426;-72
2022/05/19 07:35:35;;;;;;;10.10;6.20;;;23.00;33.70;;;;;;4971578;28;21004;-71
2022/05/19 07:38:02;;;;;;;10.50;6.90;;;23.20;33.20;;;;;;4971856;28;20440;-71
2022/05/19 07:40:28;;;;;;;11.60;7.03;;;23.60;32.50;;;;;;4972826;28;20656;-71
2022/05/19 07:42:54;;;;;;;9.03;6.67;;;23.60;31.40;;;;;;4970653;28;20525;-71
2022/05/19 07:45:20;;;;;;;9.03;6.40;;;23.70;31.60;;;;;;4971945;28;20472;-70
2022/05/19 07:47:45;;;;;;;12.90;6.80;;;23.70;31.50;;;;;;4971802;28;20198;-71
2022/05/19 07:50:11;;;;;;;12.83;6.73;;;23.70;31.80;;;;;;4972867;28;20473;-71
2022/05/19 07:52:38;;;;;;;11.90;7.03;;;23.80;31.40;;;;;;4972127;28;20182;-72
2022/05/19 07:55:05;;;;;;;16.63;7.23;;;23.90;31.00;;;;;;4971089;28;20426;-70
2022/05/19 07:57:31;;;;;;;12.97;6.53;;;23.90;31.20;;;;;;4972361;28;20418;-70
2022/05/19 07:59:56;;;;;;;10.37;6.10;;;24.00;31.60;;;;;;4971218;28;20813;-69
2022/05/19 08:02:22;;;;;;;15.30;6.50;;;24.10;30.60;;;;;;4971211;28;20565;-71
2022/05/19 08:04:49;;;;;;;16.17;6.30;;;24.40;30.00;;;;;;4969638;28;20178;-71
2022/05/19 08:07:15;;;;;;;17.43;7.10;;;24.90;29.80;;;;;;4971772;28;20556;-71
2022/05/19 08:18:00;;;;;;;10.20;6.03;;;24.60;31.30;;;;;;4969447;28;20537;-71
2022/05/19 08:20:28;;;;;;;11.87;6.30;;;24.30;31.50;;;;;;4969838;28;20492;-71
2022/05/19 08:22:54;;;;;;;9.87;6.60;;;24.60;30.60;;;;;;4966467;28;20436;-74
2022/05/19 08:25:24;;;;;;;10.63;6.13;;;25.10;29.60;;;;;;4969082;28;20448;-71
2022/05/19 08:27:50;;;;;;;12.57;6.90;;;25.00;30.40;;;;;;4968523;28;20822;-72
2022/05/19 08:30:15;;;;;;;14.80;6.37;;;24.80;30.90;;;;;;4972568;28;20465;-72
2022/05/19 08:32:42;;;;;;;16.57;6.47;;;25.00;31.60;;;;;;4971786;28;20171;-73
2022/05/19 08:35:08;;;;;;;38.47;7.03;;;25.00;31.00;;;;;;4971591;28;20178;-72
2022/05/19 08:37:34;;;;;;;10.03;6.70;;;24.90;32.90;;;;;;4972533;28;20426;-71
2022/05/19 08:40:00;;;;;;;14.30;6.53;;;25.50;30.20;;;;;;4955033;28;20454;-71
2022/05/19 08:42:27;;;;;;;15.93;6.73;;;26.30;30.50;;;;;;4971418;28;20282;-74
2022/05/19 08:44:55;;;;;;;8.33;6.40;;;26.40;28.90;;;;;;4970111;28;20190;-71
2022/05/19 08:47:26;;;;;;;13.80;6.20;;;26.20;30.00;;;;;;4971527;28;20436;-71
2022/05/19 08:50:11;;;;;;;18.40;6.80;;;26.40;30.00;;;;;;4971387;28;20477;-70
2022/05/19 08:52:45;;;;;;;25.53;7.40;;;26.70;28.70;;;;;;4965462;28;20433;-72
2022/05/19 08:55:14;;;;;;;12.10;6.67;;;26.70;29.20;;;;;;4966583;28;20452;-72
2022/05/19 08:57:50;;;;;;;13.10;6.70;;;26.30;29.30;;;;;;4971198;28;20824;-72
2022/05/19 09:00:24;;;;;;;15.83;6.43;;;26.00;30.10;;;;;;4972712;28;20536;-72
2022/05/19 09:03:02;;;;;;;8.90;6.37;;;26.30;30.20;;;;;;4969858;28;20442;-72
2022/05/19 09:05:45;;;;;;;11.77;6.20;;;26.40;29.80;;;;;;4973092;28;20402;-72
2022/05/19 09:08:29;;;;;;;8.53;5.70;;;26.60;30.40;;;;;;4971488;28;20445;-73
2022/05/19 09:11:19;;;;;;;9.67;6.00;;;27.10;28.60;;;;;;4969898;28;20519;-72
2022/05/19 09:13:51;;;;;;;14.70;7.50;;;27.40;28.90;;;;;;4967804;28;20968;-73
2022/05/19 09:16:23;;;;;;;8.80;6.17;;;27.40;28.10;;;;;;4972360;28;20430;-72
2022/05/19 09:19:04;;;;;;;11.63;6.73;;;27.40;28.70;;;;;;4970764;28;20437;-72
2022/05/19 09:21:30;;;;;;;14.93;6.83;;;27.40;28.70;;;;;;4965611;28;20433;-72
2022/05/19 09:23:56;;;;;;;9.80;6.17;;;28.10;29.20;;;;;;4972433;28;20410;-71
2022/05/19 09:26:42;;;;;;;10.20;6.33;;;28.10;27.20;;;;;;4972689;28;20425;-73
2022/05/19 09:29:13;;;;;;;11.87;7.03;;;27.70;27.80;;;;;;4955367;28;20174;-72
2022/05/19 09:31:40;;;;;;;10.23;6.27;;;27.50;28.00;;;;;;4971575;28;21011;-72
2022/05/19 09:34:08;;;;;;;14.20;6.00;;;27.50;28.60;;;;;;4972292;28;20420;-73
2022/05/19 09:36:41;;;;;;;12.40;6.07;;;27.70;27.80;;;;;;4972556;28;20488;-72
2022/05/19 09:39:12;;;;;;;8.23;6.20;;;27.70;28.30;;;;;;4972747;28;20425;-72
2022/05/19 09:41:45;;;;;;;18.33;5.90;;;28.40;26.20;;;;;;4972405;28;20929;-71
2022/05/19 09:44:13;;;;;;;14.40;5.73;;;28.20;25.90;;;;;;4971763;28;20426;-73
2022/05/19 09:46:50;;;;;;;11.63;6.00;;;28.20;25.80;;;;;;4972379;28;20472;-72
2022/05/19 09:49:28;;;;;;;16.63;5.80;;;28.50;26.30;;;;;;4972079;28;20432;-73
2022/05/19 09:52:03;;;;;;;15.83;6.30;;;29.10;25.00;;;;;;4972441;28;20504;-73
2022/05/19 09:54:33;;;;;;;9.60;5.90;;;29.10;24.70;;;;;;4972014;28;20416;-73
2022/05/19 09:57:24;;;;;;;15.63;5.70;;;28.60;26.00;;;;;;4972336;28;20461;-73
2022/05/19 09:59:53;;;;;;;16.03;5.60;;;32.00;26.60;;;;;;4972525;28;20425;-73
2022/05/19 10:02:18;;;;;;;12.43;5.57;;;28.60;25.60;;;;;;4972215;28;20409;-73
2022/05/19 10:04:57;;;;;;;18.57;6.00;;;28.70;24.80;;;;;;4972274;28;20944;-72
2022/05/19 10:07:26;;;;;;;16.23;6.37;;;29.20;25.10;;;;;;4972346;28;20209;-72
2022/05/19 10:09:54;;;;;;;11.43;5.70;;;28.30;25.70;;;;;;4972224;28;20531;-73
2022/05/19 10:12:25;;;;;;;16.10;5.70;;;28.40;24.60;;;;;;4969519;28;20863;-73
2022/05/19 10:15:13;;;;;;;11.40;4.97;;;28.40;24.60;;;;;;4968875;28;20952;-72
2022/05/19 10:17:50;;;;;;;11.67;5.10;;;28.80;22.20;;;;;;4966005;28;20509;-72
2022/05/19 10:20:34;;;;;;;15.93;5.57;;;28.80;22.10;;;;;;4971080;28;20449;-73
2022/05/19 10:23:18;;;;;;;9.70;5.20;;;29.00;22.40;;;;;;4971651;28;20433;-72
2022/05/19 10:25:58;;;;;;;14.37;5.63;;;29.40;22.70;;;;;;4967003;28;20450;-72
2022/05/19 10:31:48;;;;;;;11.53;4.80;;;29.50;21.10;;;;;;4952943;29;20426;-73
2022/05/19 10:34:15;;;;;;;9.57;5.20;;;30.00;20.30;;;;;;4953009;29;20906;-72
2022/05/19 10:36:55;;;;;;;11.63;5.23;;;30.20;19.50;;;;;;4967755;28;20457;-73
2022/05/19 10:39:21;;;;;;;6.90;4.43;;;30.50;18.80;;;;;;4960375;28;20783;-72
2022/05/19 10:41:59;;;;;;;12.43;5.40;;;30.20;19.10;;;;;;4953533;28;20512;-71
2022/05/19 10:44:49;;;;;;;19.23;5.33;;;30.40;19.50;;;;;;4975399;28;20245;-71
2022/05/19 10:47:47;;;;;;;19.03;5.10;;;30.60;18.90;;;;;;4975945;28;20394;-73
2022/05/19 10:50:15;;;;;;;8.90;4.80;;;31.10;18.20;;;;;;4957162;28;20474;-72
2022/05/19 10:52:59;;;;;;;10.43;4.87;;;31.40;18.30;;;;;;4972573;28;20910;-72
2022/05/19 10:55:43;;;;;;;9.53;5.10;;;31.70;17.10;;;;;;4970716;28;20405;-73
2022/05/19 10:58:37;;;;;;;8.03;4.93;;;31.90;17.10;;;;;;4975796;28;20393;-74
2022/05/19 11:01:09;;;;;;;13.20;4.60;;;31.90;17.30;;;;;;4974775;28;20480;-72
2022/05/19 11:04:00;;;;;;;14.73;4.90;;;30.90;16.80;;;;;;4975333;28;20445;-71
2022/05/19 11:06:50;;;;;;;19.93;4.83;;;30.40;17.80;;;;;;4973830;28;20437;-74
2022/05/19 11:09:27;;;;;;;8.33;4.83;;;30.60;18.00;;;;;;4973157;28;20536;-73
2022/05/19 11:12:18;;;;;;;12.20;5.00;;;30.40;17.80;;;;;;4956079;28;20440;-73
2022/05/19 11:15:09;;;;;;;12.07;4.77;;;31.00;17.10;;;;;;4965344;28;20906;-74
2022/05/19 11:17:48;;;;;;;11.63;4.87;;;31.30;16.50;;;;;;4974564;28;20424;-73
2022/05/19 11:20:19;;;;;;;9.30;4.40;;;31.60;16.00;;;;;;4974583;28;20948;-73
2022/05/19 11:22:50;;;;;;;10.90;4.43;;;31.30;16.20;;;;;;4973658;28;20961;-72
2022/05/19 11:28:31;;;;;;;16.33;4.30;;;32.30;15.20;;;;;;4975396;28;20894;-72
2022/05/19 11:31:05;;;;;;;9.57;4.20;;;32.60;14.30;;;;;;4974395;28;20465;-72
2022/05/19 11:33:37;;;;;;;12.63;3.80;;;33.20;13.80;;;;;;4974056;28;20429;-74
2022/05/19 11:36:30;;;;;;;15.73;4.50;;;34.70;11.70;;;;;;4973550;28;20467;-73
2022/05/19 11:39:04;;;;;;;14.53;4.07;;;35.10;10.70;;;;;;4963003;28;20447;-73
2022/05/19 11:41:34;;;;;;;15.00;4.23;;;35.90;10.00;;;;;;4967626;28;20945;-73
2022/05/19 11:44:14;;;;;;;17.87;4.23;;;36.80;8.00;;;;;;4972850;28;20438;-74
2022/05/19 11:47:01;;;;;;;9.37;4.10;;;36.90;8.50;;;;;;4971560;28;20445;-73
2022/05/19 11:55:23;;;;;;;11.83;3.40;;;35.30;8.50;;;;;;4972617;28;20456;-73
2022/05/19 11:58:01;;;;;;;11.70;4.03;;;35.40;8.70;;;;;;4972858;28;20524;-72
2022/05/19 12:00:29;;;;;;;8.40;3.80;;;34.20;9.40;;;;;;4950961;28;20465;-72
2022/05/19 12:03:12;;;;;;;8.90;3.60;;;35.40;8.70;;;;;;4974316;28;20421;-72
2022/05/19 12:05:40;;;;;;;9.93;3.70;;;33.90;9.50;;;;;;4973057;28;20437;-73
2022/05/19 12:08:34;;;;;;;10.03;3.67;;;33.40;9.50;;;;;;4972299;28;20414;-72
2022/05/19 12:11:19;;;;;;;20.70;3.90;;;34.10;9.80;;;;;;4969989;28;20469;-71
2022/05/19 12:13:51;;;;;;;12.47;3.57;;;33.50;9.40;;;;;;4972778;28;20496;-72
2022/05/19 12:16:48;;;;;;;11.57;3.73;;;32.80;9.80;;;;;;4973919;28;20980;-73
2022/05/19 12:19:58;;;;;;;6.53;3.60;;;33.70;8.00;;;;;;4974415;28;20400;-73
2022/05/19 12:22:26;;;;;;;11.53;4.17;;;32.80;10.40;;;;;;4893802;29;20573;-73
2022/05/19 12:25:03;;;;;;;6.93;4.40;;;32.30;11.10;;;;;;4894264;29;20444;-72
2022/05/19 12:27:37;;;;;;;11.27;3.67;;;32.60;11.00;;;;;;4893918;29;20540;-72
2022/05/19 12:33:22;;;;;;;10.30;3.97;;;32.90;10.30;;;;;;4895378;29;20408;-73
2022/05/19 12:35:52;;;;;;;13.20;3.80;;;32.50;11.20;;;;;;4895675;29;20418;-72
2022/05/19 12:38:26;;;;;;;9.00;4.27;;;32.90;11.30;;;;;;4894679;29;20437;-73
2022/05/19 12:40:55;;;;;;;11.20;4.47;;;32.80;11.40;;;;;;4895642;29;20444;-73
2022/05/19 12:43:21;;;;;;;19.90;3.80;;;33.40;11.80;;;;;;4886773;29;20520;-72
2022/05/19 12:45:59;;;;;;;8.80;4.20;;;33.40;10.60;;;;;;4894393;29;20444;-72
2022/05/19 12:48:34;;;;;;;17.33;4.27;;;33.30;10.40;;;;;;4891069;29;20520;-71
2022/05/19 12:51:17;;;;;;;7.07;3.70;;;33.30;11.10;;;;;;4895182;29;20487;-71
2022/05/19 12:53:51;;;;;;;10.87;3.90;;;33.50;10.60;;;;;;4895335;29;20508;-71
2022/05/19 12:56:50;;;;;;;14.30;4.87;;;33.20;10.70;;;;;;4936128;28;20418;-72
2022/05/19 12:59:34;;;;;;;15.33;4.50;;;33.70;11.40;;;;;;4895944;29;20956;-73
2022/05/19 13:02:17;;;;;;;9.23;4.23;;;34.60;9.90;;;;;;4894486;29;20443;-72
2022/05/19 13:04:51;;;;;;;9.67;4.27;;;34.00;11.90;;;;;;4894477;29;20428;-73
2022/05/19 13:07:22;;;;;;;12.63;4.43;;;34.70;10.40;;;;;;4892608;29;20445;-72
2022/05/19 13:10:05;;;;;;;10.93;4.33;;;34.70;9.40;;;;;;4887421;29;21004;-72
2022/05/19 13:13:15;;;;;;;15.57;4.10;;;34.50;10.00;;;;;;4891302;29;20440;-72
2022/05/19 13:16:13;;;;;;;10.40;4.30;;;33.20;11.90;;;;;;4888215;29;20451;-72
2022/05/19 13:18:43;;;;;;;7.00;4.30;;;33.30;11.70;;;;;;4892684;29;20493;-72
2022/05/19 13:21:26;;;;;;;9.27;4.33;;;32.80;11.90;;;;;;4893172;29;20593;-72
2022/05/19 13:23:52;;;;;;;8.50;4.50;;;32.30;12.50;;;;;;4891167;29;20465;-71
2022/05/19 13:26:28;;;;;;;12.40;3.80;;;32.60;11.90;;;;;;4893742;29;20437;-72